Time;durP1;ratioP1;P1;durP2;ratioP2;P2;SDS_P1;SDS_P2;PMS_P1;PMS_P2;Temp;Humidity;BMP_temperature;BMP_pressure;BME280_temperature;BME280_humidity;BME280_pressure;Samples;Min_cycle;Max_cycle;Signal;HPM_P1;HPM_P2
2022/09/05 00:00:06;;;;;;;6.45;3.67;;;18.10;99.90;;;;;;5005169;28;20412;-70
2022/09/05 00:02:40;;;;;;;6.85;3.80;;;18.00;99.90;;;;;;5004811;28;20815;-70
2022/09/05 00:05:24;;;;;;;5.10;3.70;;;18.00;99.90;;;;;;5008264;28;20212;-68
2022/09/05 00:08:15;;;;;;;5.13;4.22;;;18.00;99.90;;;;;;5004706;28;20753;-70
2022/09/05 00:10:52;;;;;;;5.35;3.78;;;18.00;99.90;;;;;;5002588;28;20312;-71
2022/09/05 00:13:24;;;;;;;8.68;3.72;;;18.00;99.90;;;;;;4998912;28;20751;-70
2022/09/05 00:16:08;;;;;;;5.22;3.92;;;18.00;99.90;;;;;;5004808;28;20212;-70
2022/09/05 00:18:46;;;;;;;11.38;4.13;;;18.00;99.90;;;;;;5003589;28;20223;-70
2022/09/05 00:21:23;;;;;;;5.53;3.90;;;18.00;99.90;;;;;;5008474;28;20182;-70
2022/09/05 00:24:15;;;;;;;5.93;3.40;;;17.90;99.90;;;;;;5005374;28;20187;-70
2022/09/05 00:27:04;;;;;;;6.57;4.28;;;17.90;99.90;;;;;;5004031;28;20260;-70
2022/09/05 00:29:57;;;;;;;4.78;4.07;;;17.90;99.90;;;;;;5000092;28;20214;-70
2022/09/05 00:32:48;;;;;;;6.70;4.10;;;17.90;99.90;;;;;;5001835;28;20694;-70
2022/09/05 00:35:37;;;;;;;4.93;3.45;;;17.90;99.90;;;;;;5007375;28;20362;-71
2022/09/05 00:38:30;;;;;;;6.82;3.85;;;17.90;99.90;;;;;;5007320;28;20205;-70
2022/09/05 00:41:06;;;;;;;5.03;3.90;;;17.80;99.90;;;;;;5004353;28;20576;-70
2022/09/05 00:43:35;;;;;;;5.63;3.75;;;17.80;99.90;;;;;;5000651;28;20212;-70
2022/09/05 00:46:12;;;;;;;6.25;4.47;;;17.80;99.90;;;;;;5006081;28;20270;-71
2022/09/05 00:49:13;;;;;;;6.93;3.83;;;17.80;99.90;;;;;;5003076;28;20209;-70
2022/09/05 00:52:03;;;;;;;5.15;3.53;;;17.70;99.90;;;;;;4999717;28;20911;-70
2022/09/05 00:54:39;;;;;;;4.97;3.72;;;17.70;99.90;;;;;;5006439;28;20209;-69
2022/09/05 00:57:39;;;;;;;6.07;3.85;;;17.60;99.90;;;;;;5006186;28;20217;-69
2022/09/05 01:00:12;;;;;;;7.60;4.00;;;17.60;99.90;;;;;;5002929;28;20173;-69
2022/09/05 01:02:55;;;;;;;5.35;3.65;;;17.60;99.90;;;;;;5003805;28;20177;-69
2022/09/05 01:05:24;;;;;;;6.75;3.88;;;17.50;99.90;;;;;;5007576;28;20243;-69
2022/09/05 01:08:17;;;;;;;6.75;4.25;;;17.50;99.90;;;;;;5003445;28;20722;-70
2022/09/05 01:11:11;;;;;;;5.75;3.90;;;17.50;99.90;;;;;;5002217;28;20210;-68
2022/09/05 01:13:53;;;;;;;5.32;3.63;;;17.50;99.90;;;;;;5004547;28;20204;-69
2022/09/05 01:16:53;;;;;;;6.55;4.03;;;17.50;99.90;;;;;;4999923;28;20205;-69
2022/09/05 01:19:26;;;;;;;7.28;4.20;;;17.40;99.90;;;;;;5008293;28;20296;-70
2022/09/05 01:22:07;;;;;;;6.93;3.30;;;17.40;99.90;;;;;;5004954;28;20731;-70
2022/09/05 01:24:52;;;;;;;7.55;4.35;;;17.40;99.90;;;;;;5005583;28;20228;-70
2022/09/05 01:27:37;;;;;;;7.30;4.35;;;17.40;99.90;;;;;;5007474;28;20565;-70
2022/09/05 01:30:23;;;;;;;6.63;4.20;;;17.40;99.90;;;;;;5006231;28;20638;-70
2022/09/05 01:33:21;;;;;;;6.40;4.18;;;17.30;99.90;;;;;;5004411;28;20173;-69
2022/09/05 01:35:55;;;;;;;4.82;3.97;;;17.30;99.90;;;;;;4989600;28;20217;-70
2022/09/05 01:38:50;;;;;;;7.05;3.67;;;17.30;99.90;;;;;;5002218;28;20255;-71
2022/09/05 01:41:29;;;;;;;8.98;4.35;;;17.30;99.90;;;;;;5005451;28;20215;-69
2022/09/05 01:44:25;;;;;;;5.72;4.22;;;17.30;99.90;;;;;;5000560;28;20205;-71
2022/09/05 01:46:56;;;;;;;7.50;4.38;;;17.20;99.90;;;;;;5004991;28;20242;-70
2022/09/05 01:49:35;;;;;;;5.65;4.10;;;17.20;99.90;;;;;;5004488;28;20354;-69
2022/09/05 01:52:17;;;;;;;6.90;4.25;;;17.20;99.90;;;;;;5001350;28;20205;-69
2022/09/05 01:55:20;;;;;;;7.70;4.90;;;17.10;99.90;;;;;;5008903;28;20208;-68
2022/09/05 01:58:10;;;;;;;7.50;4.55;;;17.00;99.90;;;;;;5004276;28;20217;-68
2022/09/05 02:00:45;;;;;;;6.57;4.60;;;17.00;99.90;;;;;;5002780;28;20201;-70
2022/09/05 02:03:37;;;;;;;6.15;4.32;;;17.00;99.90;;;;;;5008429;28;20176;-70
2022/09/05 02:06:06;;;;;;;5.13;4.00;;;17.00;99.90;;;;;;5009541;28;20284;-69
2022/09/05 02:08:51;;;;;;;9.02;4.70;;;16.90;99.90;;;;;;5007001;28;20173;-70
2022/09/05 02:11:17;;;;;;;7.68;4.43;;;16.90;99.90;;;;;;5011722;28;20252;-70
2022/09/05 02:13:58;;;;;;;7.53;4.65;;;16.90;99.90;;;;;;5011806;28;20276;-69
2022/09/05 02:16:42;;;;;;;6.00;4.80;;;16.90;99.90;;;;;;5004563;28;20835;-71
2022/09/05 02:19:36;;;;;;;5.75;4.50;;;16.90;99.90;;;;;;5002322;28;20221;-70
2022/09/05 02:22:13;;;;;;;6.60;4.07;;;16.90;99.90;;;;;;5001202;28;20217;-70
2022/09/05 02:24:46;;;;;;;6.60;4.43;;;16.90;99.90;;;;;;5003157;28;20234;-69
2022/09/05 02:27:42;;;;;;;8.05;5.28;;;16.90;99.90;;;;;;5003486;28;20672;-70
2022/09/05 02:30:15;;;;;;;6.05;4.32;;;16.90;99.90;;;;;;5000988;28;20237;-72
2022/09/05 02:32:54;;;;;;;5.70;4.47;;;16.80;99.90;;;;;;5003065;28;20223;-69
2022/09/05 02:35:46;;;;;;;9.32;4.95;;;16.80;99.90;;;;;;5004290;28;20220;-70
2022/09/05 02:38:27;;;;;;;8.15;4.40;;;16.70;99.90;;;;;;5003511;28;21598;-70
2022/09/05 02:41:06;;;;;;;7.25;4.50;;;16.70;99.90;;;;;;5001808;28;20839;-69
2022/09/05 02:43:37;;;;;;;7.20;4.55;;;16.70;99.90;;;;;;5003567;28;20216;-70
2022/09/05 02:46:11;;;;;;;6.47;4.90;;;16.70;99.90;;;;;;5001040;28;20209;-70
2022/09/05 02:48:56;;;;;;;5.55;4.60;;;16.60;99.90;;;;;;5005433;28;20771;-70
2022/09/05 02:51:30;;;;;;;9.20;5.25;;;16.60;99.90;;;;;;5001986;28;20224;-71
2022/09/05 02:54:05;;;;;;;6.07;4.80;;;16.60;99.90;;;;;;5001268;28;20199;-70
2022/09/05 02:56:51;;;;;;;7.40;4.95;;;16.60;99.90;;;;;;5003743;28;20259;-70
2022/09/05 02:59:31;;;;;;;6.10;4.85;;;16.60;99.90;;;;;;5002218;28;20233;-70
2022/09/05 03:02:09;;;;;;;10.98;5.43;;;16.50;99.90;;;;;;5000532;28;20329;-69
2022/09/05 03:04:46;;;;;;;7.45;4.35;;;16.50;99.90;;;;;;5036525;23;20246;-71
2022/09/05 03:07:37;;;;;;;5.15;4.43;;;16.50;99.90;;;;;;5029727;28;20216;-71
2022/09/05 03:10:34;;;;;;;7.20;4.20;;;16.50;99.90;;;;;;5038087;28;20232;-71
2022/09/05 03:13:37;;;;;;;6.68;4.72;;;16.50;99.90;;;;;;5029323;28;20204;-70
2022/09/05 03:16:47;;;;;;;7.32;4.90;;;16.50;99.90;;;;;;5026751;28;20269;-71
2022/09/05 03:19:24;;;;;;;8.65;4.68;;;16.50;99.90;;;;;;5030847;28;20648;-71
2022/09/05 03:22:08;;;;;;;5.43;4.50;;;16.40;99.90;;;;;;5022525;28;20216;-70
2022/09/05 03:24:55;;;;;;;11.23;4.82;;;16.40;99.90;;;;;;5028232;28;20602;-71
2022/09/05 03:27:42;;;;;;;6.40;4.78;;;16.40;99.90;;;;;;5030684;28;20601;-71
2022/09/05 03:30:10;;;;;;;8.90;4.40;;;16.40;99.90;;;;;;5021614;28;20196;-70
2022/09/05 03:32:55;;;;;;;5.85;4.55;;;16.40;99.90;;;;;;5026810;28;20686;-70
2022/09/05 03:35:26;;;;;;;7.25;4.70;;;16.40;99.90;;;;;;5029647;28;20802;-71
2022/09/05 03:38:09;;;;;;;7.20;4.07;;;16.40;99.90;;;;;;5033779;28;20205;-70
2022/09/05 03:40:52;;;;;;;6.97;4.25;;;16.40;99.90;;;;;;5028715;28;20690;-70
2022/09/05 03:44:15;;;;;;;6.40;4.30;;;16.30;99.90;;;;;;5030930;28;20208;-70
2022/09/05 03:47:06;;;;;;;7.78;4.47;;;16.30;99.90;;;;;;4984740;28;20276;-71
2022/09/05 03:50:01;;;;;;;6.68;4.32;;;16.30;99.90;;;;;;4979810;28;20591;-71
2022/09/05 03:52:29;;;;;;;7.47;4.22;;;16.30;99.90;;;;;;5022765;28;20208;-70
2022/09/05 03:55:11;;;;;;;7.07;4.28;;;16.30;99.90;;;;;;5030720;28;20212;-71
2022/09/05 03:57:49;;;;;;;7.43;4.07;;;16.20;99.90;;;;;;5026456;28;20243;-70
2022/09/05 04:00:29;;;;;;;4.90;4.05;;;16.20;99.90;;;;;;5027128;28;20168;-71
2022/09/05 04:03:25;;;;;;;8.07;3.90;;;16.10;99.90;;;;;;5020309;28;20383;-70
2022/09/05 04:05:57;;;;;;;5.53;4.57;;;16.00;99.90;;;;;;5004349;28;20583;-71
2022/09/05 04:08:51;;;;;;;7.57;4.65;;;16.00;99.90;;;;;;5029030;28;20211;-70
2022/09/05 04:11:34;;;;;;;5.80;4.15;;;16.10;99.90;;;;;;5028927;28;20210;-70
2022/09/05 04:14:10;;;;;;;6.40;4.45;;;16.10;99.90;;;;;;5026805;28;20884;-70
2022/09/05 04:16:50;;;;;;;8.13;4.50;;;16.10;99.90;;;;;;5019642;28;20578;-71
2022/09/05 04:19:31;;;;;;;6.85;4.38;;;16.10;99.90;;;;;;5028950;28;20214;-71
2022/09/05 04:22:25;;;;;;;5.05;4.07;;;16.00;99.90;;;;;;5020764;28;20585;-70
2022/09/05 04:25:06;;;;;;;5.68;4.00;;;16.00;99.90;;;;;;5024885;28;20220;-70
2022/09/05 04:28:18;;;;;;;5.40;3.95;;;16.00;99.90;;;;;;5026999;28;20559;-70
2022/09/05 04:30:57;;;;;;;6.82;4.20;;;16.00;99.90;;;;;;5021061;28;20228;-71
2022/09/05 04:33:31;;;;;;;8.55;5.38;;;16.00;99.90;;;;;;5027654;28;20300;-70
2022/09/05 04:36:20;;;;;;;5.38;4.32;;;16.00;99.90;;;;;;5024817;28;20568;-70
2022/09/05 04:39:22;;;;;;;5.43;4.03;;;16.10;99.90;;;;;;5020916;28;20557;-70
2022/09/05 04:42:09;;;;;;;6.60;4.40;;;16.00;99.90;;;;;;5005552;28;20211;-70
2022/09/05 04:44:47;;;;;;;8.52;4.18;;;16.00;99.90;;;;;;5006162;28;20225;-70
2022/09/05 04:47:35;;;;;;;6.10;4.28;;;16.00;99.90;;;;;;5001076;28;20202;-71
2022/09/05 04:50:12;;;;;;;6.20;3.95;;;16.20;99.90;;;;;;5004932;28;20299;-70
2022/09/05 04:53:02;;;;;;;8.52;4.65;;;17.10;99.90;;;;;;5007046;28;20582;-71
2022/09/05 04:55:32;;;;;;;7.80;4.10;;;17.60;99.90;;;;;;5001610;28;20209;-70
2022/09/05 04:58:05;;;;;;;6.60;4.53;;;18.20;99.90;;;;;;5005271;28;20213;-71
2022/09/05 05:00:50;;;;;;;6.95;4.43;;;17.90;99.90;;;;;;5004885;28;20242;-71
2022/09/05 05:03:22;;;;;;;7.28;3.60;;;17.70;99.90;;;;;;5002944;28;20228;-71
2022/09/05 05:05:48;;;;;;;7.40;3.78;;;17.50;99.90;;;;;;5000743;28;20216;-70
2022/09/05 05:08:46;;;;;;;8.20;3.63;;;17.70;99.90;;;;;;5006094;28;20228;-70
2022/09/05 05:11:14;;;;;;;6.68;4.95;;;17.30;99.90;;;;;;5018786;28;20729;-70
2022/09/05 05:13:48;;;;;;;8.75;5.47;;;17.20;99.90;;;;;;5020131;28;20232;-69
2022/09/05 05:16:23;;;;;;;6.85;4.60;;;17.20;99.90;;;;;;5017957;28;20219;-71
2022/09/05 05:19:05;;;;;;;9.93;4.35;;;17.30;99.90;;;;;;5027547;28;20302;-71
2022/09/05 05:21:31;;;;;;;9.15;4.13;;;17.70;99.90;;;;;;5021925;28;20248;-70
2022/09/05 05:24:12;;;;;;;6.28;3.58;;;18.00;99.90;;;;;;5024898;28;20239;-70
2022/09/05 05:26:57;;;;;;;5.78;4.22;;;18.00;99.90;;;;;;5026116;28;20198;-70
2022/09/05 05:29:53;;;;;;;6.40;4.18;;;18.80;99.90;;;;;;5019839;28;20197;-71
2022/09/05 05:32:24;;;;;;;6.22;3.20;;;19.20;99.90;;;;;;5038965;28;20211;-70
2022/09/05 05:35:10;;;;;;;7.15;4.43;;;19.80;99.90;;;;;;5023985;28;20223;-70
2022/09/05 05:38:14;;;;;;;7.05;3.85;;;19.80;99.90;;;;;;5027448;28;20201;-71
2022/09/05 05:40:46;;;;;;;7.03;3.67;;;20.20;99.90;;;;;;5015745;28;20216;-71
2022/09/05 05:43:19;;;;;;;6.60;3.83;;;20.70;99.90;;;;;;5031006;28;22527;-70
2022/09/05 05:45:45;;;;;;;4.82;3.60;;;20.30;99.90;;;;;;5032308;28;20222;-71
2022/09/05 05:48:19;;;;;;;9.70;4.05;;;20.00;99.90;;;;;;5028041;28;20184;-70
2022/09/05 05:51:21;;;;;;;6.13;3.92;;;19.70;99.90;;;;;;5030436;28;20195;-71
2022/09/05 05:54:02;;;;;;;5.38;3.33;;;19.60;99.90;;;;;;5032290;28;20207;-70
2022/09/05 05:57:00;;;;;;;7.53;2.97;;;19.60;99.90;;;;;;5026438;28;20197;-71
2022/09/05 05:59:42;;;;;;;6.70;4.18;;;19.30;99.90;;;;;;5029384;28;20208;-70
2022/09/05 06:02:45;;;;;;;6.65;3.67;;;18.80;99.90;;;;;;5048486;28;20228;-70
2022/09/05 06:05:26;;;;;;;5.90;3.33;;;19.10;99.90;;;;;;5043890;28;20225;-71
2022/09/05 06:07:59;;;;;;;4.28;3.33;;;19.60;99.90;;;;;;5029901;28;20215;-71
2022/09/05 06:11:20;;;;;;;7.75;4.55;;;21.00;99.90;;;;;;5032182;28;20212;-70
2022/09/05 06:13:58;;;;;;;6.18;3.40;;;21.10;99.90;;;;;;5005167;28;20205;-70
2022/09/05 06:16:29;;;;;;;6.50;3.55;;;21.30;99.90;;;;;;5025800;28;20211;-71
2022/09/05 06:19:24;;;;;;;6.13;4.53;;;21.60;99.90;;;;;;5031081;28;20706;-71
2022/09/05 06:22:18;;;;;;;7.05;3.90;;;22.00;99.90;;;;;;5023705;28;20235;-71
2022/09/05 06:24:52;;;;;;;5.88;3.33;;;23.40;99.90;;;;;;5026875;28;20229;-71
2022/09/05 06:27:50;;;;;;;6.20;3.40;;;24.50;99.90;;;;;;5030905;28;20212;-71
2022/09/05 06:30:20;;;;;;;5.93;3.30;;;24.70;99.90;;;;;;5023372;28;20319;-71
2022/09/05 06:33:04;;;;;;;7.35;4.13;;;24.60;99.90;;;;;;5028235;28;20187;-71
2022/09/05 06:35:37;;;;;;;6.82;3.42;;;24.90;99.90;;;;;;5028015;28;20212;-71
2022/09/05 06:38:31;;;;;;;6.03;4.03;;;25.10;99.90;;;;;;5027992;28;20216;-71
2022/09/05 06:41:18;;;;;;;8.02;3.72;;;24.40;99.90;;;;;;5024287;28;20243;-70
2022/09/05 06:44:07;;;;;;;5.57;3.47;;;24.10;99.90;;;;;;5030353;28;20212;-71
2022/09/05 06:46:39;;;;;;;8.00;3.88;;;23.20;99.90;;;;;;5027132;28;20201;-71
2022/09/05 06:49:24;;;;;;;6.57;3.42;;;22.10;99.90;;;;;;5025833;28;20228;-72
2022/09/05 06:52:27;;;;;;;6.65;3.38;;;22.00;99.90;;;;;;5027694;28;20269;-70
2022/09/05 06:55:21;;;;;;;9.25;3.47;;;22.90;99.90;;;;;;5025782;28;20212;-71
2022/09/05 06:58:08;;;;;;;7.45;3.35;;;22.80;99.90;;;;;;5024644;28;20208;-70
2022/09/05 07:00:53;;;;;;;7.35;3.90;;;23.00;99.90;;;;;;5026391;28;20250;-71
2022/09/05 07:03:49;;;;;;;3.88;3.17;;;23.10;99.90;;;;;;5024992;28;20224;-70
2022/09/05 07:06:31;;;;;;;4.63;2.95;;;22.90;99.90;;;;;;5022269;28;20216;-70
2022/09/05 07:09:26;;;;;;;7.57;3.65;;;22.60;99.90;;;;;;5024982;28;20686;-70
2022/09/05 07:12:02;;;;;;;5.35;3.97;;;22.00;99.90;;;;;;5027080;28;20267;-70
2022/09/05 07:14:42;;;;;;;11.68;3.92;;;22.90;99.90;;;;;;5006398;28;20742;-70
2022/09/05 07:17:13;;;;;;;6.95;3.88;;;23.30;99.90;;;;;;5006631;28;20655;-70
2022/09/05 07:20:12;;;;;;;5.13;3.20;;;23.20;99.90;;;;;;5010299;28;20284;-70
2022/09/05 07:22:50;;;;;;;9.05;4.50;;;22.70;99.90;;;;;;5003951;28;20699;-70
2022/09/05 07:25:39;;;;;;;6.57;3.13;;;23.10;99.90;;;;;;5007019;28;20214;-70
2022/09/05 07:28:09;;;;;;;4.63;3.20;;;23.10;99.90;;;;;;5007792;28;20622;-70
2022/09/05 07:30:38;;;;;;;7.13;4.07;;;23.20;99.90;;;;;;5004478;28;20731;-71
2022/09/05 07:33:05;;;;;;;7.28;3.83;;;23.40;99.90;;;;;;5004748;28;20686;-71
2022/09/05 07:35:37;;;;;;;6.60;3.53;;;23.10;99.90;;;;;;5010851;28;20179;-71
2022/09/05 07:38:12;;;;;;;4.60;3.30;;;23.00;99.90;;;;;;5009073;28;20726;-72
2022/09/05 07:40:45;;;;;;;5.80;3.08;;;21.70;99.90;;;;;;5005692;28;20247;-71
2022/09/05 07:43:29;;;;;;;3.97;3.03;;;21.90;99.90;;;;;;5008382;28;20566;-71
2022/09/05 07:46:10;;;;;;;7.80;3.10;;;22.30;99.90;;;;;;5000673;28;20213;-71
2022/09/05 07:48:43;;;;;;;6.45;3.15;;;22.40;99.90;;;;;;5004258;28;20204;-71
2022/09/05 07:51:16;;;;;;;8.80;3.58;;;22.70;99.90;;;;;;5005733;28;20201;-71
2022/09/05 07:53:43;;;;;;;8.18;3.75;;;22.70;99.90;;;;;;5011388;28;20575;-72
2022/09/05 07:56:09;;;;;;;7.95;3.30;;;22.60;99.90;;;;;;5002688;28;20259;-71
2022/09/05 07:58:42;;;;;;;5.80;3.50;;;23.00;99.90;;;;;;5006580;28;20737;-71
2022/09/05 08:01:11;;;;;;;4.97;3.35;;;23.50;99.90;;;;;;5008672;28;20213;-72
2022/09/05 08:03:37;;;;;;;5.93;3.90;;;23.90;99.90;;;;;;5004355;28;20217;-72
2022/09/05 08:06:08;;;;;;;8.05;3.65;;;23.00;99.90;;;;;;5002534;28;20243;-71
2022/09/05 08:08:55;;;;;;;6.35;3.38;;;23.80;99.90;;;;;;5006983;28;20173;-70
2022/09/05 08:11:24;;;;;;;7.78;3.45;;;24.10;99.90;;;;;;5008654;28;20656;-70
2022/09/05 08:13:58;;;;;;;9.15;4.13;;;23.10;99.90;;;;;;5005579;28;20209;-71
2022/09/05 08:16:25;;;;;;;6.25;3.95;;;23.20;99.90;;;;;;5008286;28;20615;-69
2022/09/05 08:19:21;;;;;;;8.38;3.70;;;22.70;99.90;;;;;;5009919;28;20217;-71
2022/09/05 08:21:50;;;;;;;5.78;3.35;;;23.00;99.90;;;;;;4999510;28;20224;-70
2022/09/05 08:24:23;;;;;;;9.48;3.38;;;23.00;99.90;;;;;;5004939;28;20210;-71
2022/09/05 08:27:02;;;;;;;5.47;3.47;;;23.70;99.90;;;;;;5009856;28;20239;-71
2022/09/05 08:29:42;;;;;;;5.85;3.50;;;24.10;99.90;;;;;;5001703;28;20280;-71
2022/09/05 08:32:33;;;;;;;6.43;3.85;;;24.10;99.90;;;;;;5003835;28;20247;-71
2022/09/05 08:35:13;;;;;;;6.15;3.72;;;24.00;99.90;;;;;;4980902;28;20225;-70
2022/09/05 08:37:42;;;;;;;4.43;3.22;;;24.70;99.90;;;;;;5007468;28;20695;-70
2022/09/05 08:40:16;;;;;;;6.68;3.95;;;25.10;99.90;;;;;;5002925;28;20327;-70
2022/09/05 08:42:48;;;;;;;5.70;3.28;;;24.80;99.90;;;;;;5005357;28;20207;-70
2022/09/05 08:45:20;;;;;;;9.25;3.50;;;25.30;99.90;;;;;;5007065;28;20189;-70
2022/09/05 08:48:13;;;;;;;5.00;3.80;;;25.70;99.90;;;;;;4997502;28;20566;-70
2022/09/05 08:51:32;;;;;;;8.98;3.95;;;25.20;99.90;;;;;;5004342;28;20204;-71
2022/09/05 08:54:25;;;;;;;6.55;3.78;;;24.20;99.90;;;;;;5023283;28;20212;-70
2022/09/05 08:56:57;;;;;;;9.60;5.55;;;23.70;99.90;;;;;;5002343;28;20242;-71
2022/09/05 08:59:42;;;;;;;5.32;3.65;;;23.00;99.90;;;;;;5006037;28;20758;-71
2022/09/05 09:02:20;;;;;;;8.90;4.03;;;22.80;99.90;;;;;;5023858;28;20208;-70
2022/09/05 09:05:06;;;;;;;6.45;5.80;;;23.00;99.90;;;;;;5041584;23;20243;-71
2022/09/05 09:07:41;;;;;;;6.88;3.88;;;23.30;99.90;;;;;;5056124;28;20199;-71
2022/09/05 09:10:28;;;;;;;5.18;4.20;;;23.40;99.90;;;;;;5050234;28;20842;-71
2022/09/05 09:13:14;;;;;;;4.15;3.75;;;23.80;99.90;;;;;;5048070;28;20291;-71
2022/09/05 09:16:33;;;;;;;6.15;3.83;;;23.30;99.90;;;;;;5035679;28;20239;-71
2022/09/05 09:19:07;;;;;;;5.47;3.83;;;23.60;99.90;;;;;;4980297;28;20294;-70
2022/09/05 09:21:39;;;;;;;5.50;4.00;;;23.40;99.90;;;;;;4989907;28;20394;-72
2022/09/05 09:24:42;;;;;;;4.13;3.25;;;23.30;99.90;;;;;;5018482;28;20200;-72
2022/09/05 09:27:17;;;;;;;6.60;3.40;;;23.90;99.90;;;;;;5039674;28;20243;-72
2022/09/05 09:29:43;;;;;;;7.65;3.92;;;24.20;99.90;;;;;;5036023;28;20172;-71
2022/09/05 09:32:22;;;;;;;4.22;3.38;;;23.70;99.90;;;;;;5026104;28;20208;-72
2022/09/05 09:34:51;;;;;;;7.70;4.18;;;24.10;99.90;;;;;;5023935;28;20311;-71
2022/09/05 09:37:35;;;;;;;7.13;3.72;;;23.90;99.90;;;;;;5026571;28;20200;-71
2022/09/05 09:40:26;;;;;;;8.43;3.75;;;24.10;99.90;;;;;;5030680;28;20220;-70
2022/09/05 09:43:04;;;;;;;8.88;5.47;;;24.50;99.90;;;;;;5028030;28;20725;-69
2022/09/05 09:45:50;;;;;;;7.55;4.40;;;24.30;99.90;;;;;;5042931;28;20639;-72
2022/09/05 09:48:53;;;;;;;4.95;3.58;;;24.10;99.90;;;;;;5036006;28;20268;-71
2022/09/05 09:51:25;;;;;;;5.65;4.35;;;24.60;99.90;;;;;;5021837;28;20239;-71
2022/09/05 09:54:19;;;;;;;6.97;3.50;;;24.50;99.90;;;;;;5024363;28;20183;-71
2022/09/05 09:57:30;;;;;;;3.95;3.05;;;24.20;99.90;;;;;;5027399;28;20220;-71
2022/09/05 10:00:19;;;;;;;5.22;3.22;;;24.40;99.90;;;;;;5027103;28;20284;-72
2022/09/05 10:02:51;;;;;;;5.03;4.18;;;24.00;99.90;;;;;;5029697;28;20242;-70
2022/09/05 10:05:52;;;;;;;3.65;2.97;;;23.90;99.90;;;;;;5037959;28;20219;-72
2022/09/05 10:08:27;;;;;;;5.68;3.95;;;23.70;99.90;;;;;;5037212;28;20210;-74
2022/09/05 10:11:15;;;;;;;5.45;4.65;;;23.70;99.90;;;;;;5019810;28;20212;-72
2022/09/05 10:14:11;;;;;;;5.00;3.10;;;23.90;99.90;;;;;;5035617;28;20204;-72
2022/09/05 10:17:11;;;;;;;4.63;3.88;;;24.10;99.90;;;;;;5023544;28;20198;-73
2022/09/05 10:19:43;;;;;;;5.90;3.60;;;24.00;99.90;;;;;;5018364;28;20204;-74
2022/09/05 10:22:36;;;;;;;4.85;3.72;;;24.30;99.90;;;;;;5037192;28;20216;-72
2022/09/05 10:25:06;;;;;;;5.90;3.50;;;24.30;99.90;;;;;;5033076;28;20299;-72
2022/09/05 10:28:07;;;;;;;5.43;3.10;;;24.30;99.90;;;;;;5026282;28;20299;-73
2022/09/05 10:30:50;;;;;;;4.22;3.25;;;24.20;99.90;;;;;;5009215;28;20270;-72
2022/09/05 10:33:39;;;;;;;4.80;3.33;;;23.80;99.90;;;;;;5033006;28;20694;-72
2022/09/05 10:36:21;;;;;;;3.63;3.33;;;24.10;99.90;;;;;;5029094;28;20260;-72
2022/09/05 10:39:06;;;;;;;4.80;3.33;;;24.30;99.90;;;;;;5035154;28;20168;-71
2022/09/05 10:42:01;;;;;;;5.32;3.22;;;24.40;99.90;;;;;;5027298;28;20250;-72
2022/09/05 10:44:39;;;;;;;4.32;3.28;;;24.20;99.90;;;;;;5026338;28;20269;-73
2022/09/05 10:47:29;;;;;;;4.22;2.90;;;23.80;99.90;;;;;;5038491;28;20265;-72
2022/09/05 10:50:13;;;;;;;4.18;3.55;;;23.70;99.90;;;;;;5031551;28;20220;-72
2022/09/05 10:52:58;;;;;;;4.00;3.50;;;24.00;99.90;;;;;;5025965;28;20638;-71
2022/09/05 10:55:40;;;;;;;4.32;3.20;;;24.10;99.90;;;;;;5050743;28;20211;-73
2022/09/05 10:58:22;;;;;;;4.85;3.35;;;24.00;99.90;;;;;;5034881;28;20204;-75
2022/09/05 11:00:53;;;;;;;4.13;3.13;;;24.20;99.90;;;;;;5027954;28;20267;-72
2022/09/05 11:03:39;;;;;;;3.42;2.97;;;24.10;99.90;;;;;;5028808;28;20212;-72
2022/09/05 11:06:11;;;;;;;3.85;2.90;;;24.30;99.90;;;;;;5041386;28;20659;-73
2022/09/05 11:08:48;;;;;;;4.85;3.40;;;24.50;99.90;;;;;;5028803;28;20211;-72
2022/09/05 11:11:17;;;;;;;6.13;4.05;;;24.30;99.90;;;;;;5034469;28;20297;-72
2022/09/05 11:13:51;;;;;;;6.68;3.78;;;24.00;99.90;;;;;;5037468;28;20224;-71
2022/09/05 11:16:38;;;;;;;5.15;3.65;;;24.00;99.90;;;;;;5028896;28;20218;-72
2022/09/05 11:19:27;;;;;;;4.78;3.78;;;24.20;99.90;;;;;;5028926;28;20213;-72
2022/09/05 11:22:14;;;;;;;3.88;2.97;;;24.00;99.90;;;;;;5030138;28;20220;-71
2022/09/05 11:24:54;;;;;;;4.70;3.53;;;23.90;99.90;;;;;;5035157;28;20589;-72
2022/09/05 11:27:25;;;;;;;5.72;2.97;;;24.00;99.90;;;;;;5024081;28;20270;-75
2022/09/05 11:30:05;;;;;;;7.70;3.35;;;23.80;99.90;;;;;;5038208;28;20792;-72
2022/09/05 11:33:06;;;;;;;10.00;3.20;;;24.00;99.90;;;;;;5030525;28;20572;-72
2022/09/05 11:35:43;;;;;;;6.88;3.65;;;24.20;99.90;;;;;;5006394;28;20219;-72
2022/09/05 11:38:13;;;;;;;3.88;3.08;;;24.20;99.90;;;;;;5032261;28;20217;-71
2022/09/05 11:41:11;;;;;;;10.80;3.42;;;24.20;99.90;;;;;;5038683;28;20239;-71
2022/09/05 11:43:48;;;;;;;8.00;3.05;;;24.50;99.90;;;;;;5021998;28;20832;-71
2022/09/05 11:46:21;;;;;;;4.90;3.15;;;24.40;99.90;;;;;;5034052;28;20215;-71
2022/09/05 11:48:53;;;;;;;4.07;2.50;;;24.40;99.90;;;;;;5031230;28;20234;-72
2022/09/05 11:51:37;;;;;;;5.35;3.13;;;24.20;99.90;;;;;;5026140;28;20219;-71
2022/09/05 11:54:26;;;;;;;4.72;3.22;;;24.10;99.90;;;;;;5024946;28;20189;-71
2022/09/05 11:56:57;;;;;;;4.75;3.22;;;24.20;99.90;;;;;;5032783;28;20173;-71
2022/09/05 11:59:49;;;;;;;6.03;3.50;;;24.20;99.90;;;;;;5023922;28;20232;-71
2022/09/05 12:02:29;;;;;;;5.47;3.15;;;24.50;99.90;;;;;;5010397;28;20208;-72
2022/09/05 12:05:31;;;;;;;5.13;3.67;;;24.30;99.90;;;;;;5035026;28;20303;-72
2022/09/05 12:08:08;;;;;;;6.95;3.30;;;24.50;99.90;;;;;;5030082;28;20208;-72
2022/09/05 12:11:02;;;;;;;4.28;3.03;;;24.10;99.90;;;;;;5023881;28;20629;-71
2022/09/05 12:13:41;;;;;;;4.82;3.25;;;24.20;99.90;;;;;;5034391;28;20689;-71
2022/09/05 12:16:34;;;;;;;5.35;3.58;;;24.40;99.90;;;;;;5030805;28;20227;-70
2022/09/05 12:19:08;;;;;;;4.28;3.15;;;24.30;99.90;;;;;;5023434;28;20213;-71
2022/09/05 12:21:46;;;;;;;4.10;3.28;;;24.30;99.90;;;;;;5033121;28;20235;-71
2022/09/05 12:24:40;;;;;;;3.70;3.40;;;24.50;99.90;;;;;;5032767;28;20211;-71
2022/09/05 12:27:08;;;;;;;6.50;3.53;;;24.60;99.90;;;;;;5025213;28;20199;-70
2022/09/05 12:29:39;;;;;;;3.80;3.22;;;24.50;99.90;;;;;;5025224;28;20172;-71
2022/09/05 12:32:15;;;;;;;6.10;3.30;;;24.70;99.90;;;;;;5033565;28;20216;-71
2022/09/05 12:34:51;;;;;;;7.00;3.70;;;24.60;99.90;;;;;;5028111;28;20235;-72
2022/09/05 12:37:22;;;;;;;4.13;3.50;;;24.50;99.90;;;;;;5027282;28;20210;-71
2022/09/05 12:40:23;;;;;;;5.95;3.35;;;24.70;99.90;;;;;;5028275;28;20213;-71
2022/09/05 12:43:02;;;;;;;4.80;3.45;;;24.60;99.90;;;;;;5027144;28;20219;-71
2022/09/05 12:45:54;;;;;;;4.57;3.65;;;24.20;99.90;;;;;;5026940;28;20715;-72
2022/09/05 12:48:25;;;;;;;4.28;3.88;;;24.10;99.90;;;;;;5041146;28;20213;-71
2022/09/05 12:51:01;;;;;;;5.72;3.65;;;24.10;99.90;;;;;;5023084;28;20192;-71
2022/09/05 12:53:39;;;;;;;7.00;4.20;;;24.30;99.90;;;;;;5026285;28;20204;-70
2022/09/05 12:56:29;;;;;;;4.18;3.78;;;24.10;99.90;;;;;;5035673;28;20209;-71
2022/09/05 12:58:55;;;;;;;5.63;4.13;;;24.20;99.90;;;;;;5029021;28;20208;-72
2022/09/05 13:01:40;;;;;;;6.15;4.28;;;24.20;99.90;;;;;;5026308;28;20196;-71
2022/09/05 13:04:21;;;;;;;6.88;4.45;;;24.20;99.90;;;;;;5027535;28;20209;-71
2022/09/05 13:07:00;;;;;;;5.63;5.03;;;24.20;99.90;;;;;;5032317;28;20220;-71
2022/09/05 13:09:36;;;;;;;4.70;4.30;;;24.30;99.90;;;;;;5030452;28;20262;-72
2022/09/05 13:12:22;;;;;;;6.20;4.18;;;24.60;99.90;;;;;;5029072;28;20192;-72
2022/09/05 13:15:04;;;;;;;6.50;4.68;;;24.60;99.90;;;;;;5037091;28;20187;-72
2022/09/05 13:17:43;;;;;;;5.07;4.15;;;24.50;99.90;;;;;;5023827;28;20276;-71
2022/09/05 13:20:14;;;;;;;5.32;4.72;;;24.50;99.90;;;;;;5023121;28;20634;-71
2022/09/05 13:22:42;;;;;;;4.50;4.00;;;24.40;99.90;;;;;;5034259;28;20696;-73
2022/09/05 13:25:15;;;;;;;7.80;4.72;;;24.30;99.90;;;;;;5029583;28;20221;-72
2022/09/05 13:27:55;;;;;;;6.45;4.30;;;24.10;99.90;;;;;;5020240;28;20628;-72
2022/09/05 13:30:23;;;;;;;5.78;4.10;;;24.20;99.90;;;;;;5028042;28;20219;-71
2022/09/05 13:32:50;;;;;;;4.25;3.85;;;24.30;99.90;;;;;;5030192;28;20185;-72
2022/09/05 13:35:16;;;;;;;6.03;5.40;;;24.30;99.90;;;;;;5029322;28;20217;-72
2022/09/05 13:37:54;;;;;;;6.03;5.40;;;24.30;99.90;;;;;;5026669;28;20223;-72
2022/09/05 13:40:24;;;;;;;5.22;4.18;;;24.30;99.90;;;;;;5029186;28;20207;-71
2022/09/05 13:43:14;;;;;;;6.88;4.20;;;24.40;99.90;;;;;;5026473;28;20258;-72
2022/09/05 13:46:15;;;;;;;4.85;4.45;;;24.30;99.90;;;;;;5022409;28;20216;-72
2022/09/05 13:49:19;;;;;;;4.82;4.30;;;24.40;99.90;;;;;;5033105;28;20875;-72
2022/09/05 13:51:49;;;;;;;4.90;4.32;;;24.30;99.90;;;;;;5026452;28;20595;-71
2022/09/05 13:54:37;;;;;;;5.25;4.20;;;24.30;99.90;;;;;;5026343;28;20278;-72
2022/09/05 13:57:33;;;;;;;4.68;4.00;;;24.40;99.90;;;;;;5036263;28;20169;-72
2022/09/05 14:00:09;;;;;;;5.00;4.35;;;24.50;99.90;;;;;;5030830;28;20235;-72
2022/09/05 14:02:53;;;;;;;5.75;4.28;;;24.40;99.90;;;;;;5027057;28;20168;-73